sensor_id;sensor_type;location;lat;lon;timestamp;P1;durP1;ratioP1;P2;durP2;ratioP2
77018;SDS011;66044;53.142;17.962;2023-06-01T00:01:38;7.30;;;2.20;;
77018;SDS011;66044;53.142;17.962;2023-06-01T00:04:04;6.50;;;2.10;;
77018;SDS011;66044;53.142;17.962;2023-06-01T00:06:31;6.60;;;2.00;;
77018;SDS011;66044;53.142;17.962;2023-06-01T00:08:58;8.30;;;2.20;;
77018;SDS011;66044;53.142;17.962;2023-06-01T00:11:24;7.20;;;2.00;;
77018;SDS011;66044;53.142;17.962;2023-06-01T00:13:54;7.10;;;2.00;;
77018;SDS011;66044;53.142;17.962;2023-06-01T00:16:20;6.20;;;2.10;;
77018;SDS011;66044;53.142;17.962;2023-06-01T00:18:48;6.20;;;2.20;;
77018;SDS011;66044;53.142;17.962;2023-06-01T00:21:18;10.70;;;2.60;;
77018;SDS011;66044;53.142;17.962;2023-06-01T00:23:45;8.50;;;2.30;;
77018;SDS011;66044;53.142;17.962;2023-06-01T00:26:12;6.60;;;1.90;;
77018;SDS011;66044;53.142;17.962;2023-06-01T00:28:38;6.30;;;2.10;;
77018;SDS011;66044;53.142;17.962;2023-06-01T00:31:05;8.20;;;2.60;;
77018;SDS011;66044;53.142;17.962;2023-06-01T00:33:31;7.60;;;2.10;;
77018;SDS011;66044;53.142;17.962;2023-06-01T00:35:58;7.30;;;2.20;;
77018;SDS011;66044;53.142;17.962;2023-06-01T00:38:24;6.30;;;2.10;;
77018;SDS011;66044;53.142;17.962;2023-06-01T00:40:51;9.30;;;2.10;;
77018;SDS011;66044;53.142;17.962;2023-06-01T00:43:17;8.30;;;2.20;;
77018;SDS011;66044;53.142;17.962;2023-06-01T00:45:44;8.20;;;2.10;;
77018;SDS011;66044;53.142;17.962;2023-06-01T00:48:11;8.20;;;2.30;;
77018;SDS011;66044;53.142;17.962;2023-06-01T00:50:41;7.50;;;2.40;;
77018;SDS011;66044;53.142;17.962;2023-06-01T00:53:10;7.80;;;2.80;;
77018;SDS011;66044;53.142;17.962;2023-06-01T00:55:41;7.70;;;2.30;;
77018;SDS011;66044;53.142;17.962;2023-06-01T00:58:07;7.60;;;2.40;;
77018;SDS011;66044;53.142;17.962;2023-06-01T01:00:34;7.10;;;2.30;;
77018;SDS011;66044;53.142;17.962;2023-06-01T01:03:01;8.10;;;2.60;;
77018;SDS011;66044;53.142;17.962;2023-06-01T01:05:33;10.20;;;2.60;;
77018;SDS011;66044;53.142;17.962;2023-06-01T01:08:03;9.00;;;2.50;;
77018;SDS011;66044;53.142;17.962;2023-06-01T01:16:07;7.00;;;2.60;;
77018;SDS011;66044;53.142;17.962;2023-06-01T01:18:45;7.70;;;2.30;;
77018;SDS011;66044;53.142;17.962;2023-06-01T01:21:26;7.20;;;1.80;;
77018;SDS011;66044;53.142;17.962;2023-06-01T01:26:56;10.30;;;2.70;;
77018;SDS011;66044;53.142;17.962;2023-06-01T01:29:32;7.20;;;2.30;;
77018;SDS011;66044;53.142;17.962;2023-06-01T01:32:01;6.50;;;2.30;;
77018;SDS011;66044;53.142;17.962;2023-06-01T01:34:31;6.50;;;2.30;;
77018;SDS011;66044;53.142;17.962;2023-06-01T01:36:58;7.30;;;2.10;;
77018;SDS011;66044;53.142;17.962;2023-06-01T01:39:25;8.70;;;2.50;;
77018;SDS011;66044;53.142;17.962;2023-06-01T01:41:52;9.40;;;3.00;;
77018;SDS011;66044;53.142;17.962;2023-06-01T01:44:18;8.90;;;3.40;;
77018;SDS011;66044;53.142;17.962;2023-06-01T01:49:52;8.30;;;2.70;;
77018;SDS011;66044;53.142;17.962;2023-06-01T01:52:32;7.50;;;2.60;;
77018;SDS011;66044;53.142;17.962;2023-06-01T01:55:01;8.60;;;2.90;;
77018;SDS011;66044;53.142;17.962;2023-06-01T01:57:28;9.00;;;3.30;;
77018;SDS011;66044;53.142;17.962;2023-06-01T01:59:56;7.70;;;2.70;;
77018;SDS011;66044;53.142;17.962;2023-06-01T02:02:24;8.80;;;3.20;;
77018;SDS011;66044;53.142;17.962;2023-06-01T02:04:50;9.10;;;3.70;;
77018;SDS011;66044;53.142;17.962;2023-06-01T02:07:17;9.40;;;2.90;;
77018;SDS011;66044;53.142;17.962;2023-06-01T02:09:43;7.70;;;2.70;;
77018;SDS011;66044;53.142;17.962;2023-06-01T02:12:10;10.90;;;3.40;;
77018;SDS011;66044;53.142;17.962;2023-06-01T02:14:36;7.00;;;2.80;;
77018;SDS011;66044;53.142;17.962;2023-06-01T02:17:03;7.80;;;3.00;;
77018;SDS011;66044;53.142;17.962;2023-06-01T02:19:29;8.30;;;2.80;;
77018;SDS011;66044;53.142;17.962;2023-06-01T02:21:56;7.30;;;2.40;;
77018;SDS011;66044;53.142;17.962;2023-06-01T02:24:23;6.50;;;2.40;;
77018;SDS011;66044;53.142;17.962;2023-06-01T02:26:49;7.90;;;2.80;;
77018;SDS011;66044;53.142;17.962;2023-06-01T02:29:20;8.70;;;2.50;;
77018;SDS011;66044;53.142;17.962;2023-06-01T02:31:50;7.70;;;2.70;;
77018;SDS011;66044;53.142;17.962;2023-06-01T02:34:17;10.40;;;3.10;;
77018;SDS011;66044;53.142;17.962;2023-06-01T02:36:44;9.70;;;3.10;;
77018;SDS011;66044;53.142;17.962;2023-06-01T02:39:11;9.20;;;3.00;;
77018;SDS011;66044;53.142;17.962;2023-06-01T02:41:37;10.10;;;3.20;;
77018;SDS011;66044;53.142;17.962;2023-06-01T02:44:04;8.60;;;3.10;;
77018;SDS011;66044;53.142;17.962;2023-06-01T02:46:30;8.20;;;3.00;;
77018;SDS011;66044;53.142;17.962;2023-06-01T02:48:57;7.00;;;2.90;;
77018;SDS011;66044;53.142;17.962;2023-06-01T02:51:23;7.80;;;3.30;;
77018;SDS011;66044;53.142;17.962;2023-06-01T02:53:50;7.20;;;2.40;;
77018;SDS011;66044;53.142;17.962;2023-06-01T02:56:16;8.90;;;3.10;;
77018;SDS011;66044;53.142;17.962;2023-06-01T02:58:43;8.00;;;3.20;;
77018;SDS011;66044;53.142;17.962;2023-06-01T03:01:10;6.90;;;2.50;;
77018;SDS011;66044;53.142;17.962;2023-06-01T03:03:38;8.30;;;2.60;;
77018;SDS011;66044;53.142;17.962;2023-06-01T03:06:05;8.30;;;2.80;;
77018;SDS011;66044;53.142;17.962;2023-06-01T03:08:32;8.60;;;3.10;;
77018;SDS011;66044;53.142;17.962;2023-06-01T03:11:00;9.20;;;2.90;;
77018;SDS011;66044;53.142;17.962;2023-06-01T03:13:27;8.00;;;3.10;;
77018;SDS011;66044;53.142;17.962;2023-06-01T03:15:53;10.00;;;3.20;;
77018;SDS011;66044;53.142;17.962;2023-06-01T03:18:20;11.90;;;2.60;;
77018;SDS011;66044;53.142;17.962;2023-06-01T03:20:46;8.00;;;2.60;;
77018;SDS011;66044;53.142;17.962;2023-06-01T03:23:14;6.60;;;2.70;;
77018;SDS011;66044;53.142;17.962;2023-06-01T03:25:41;9.00;;;3.00;;
77018;SDS011;66044;53.142;17.962;2023-06-01T03:28:08;8.00;;;2.30;;
77018;SDS011;66044;53.142;17.962;2023-06-01T03:30:35;8.20;;;2.40;;
77018;SDS011;66044;53.142;17.962;2023-06-01T03:33:01;9.10;;;2.50;;
77018;SDS011;66044;53.142;17.962;2023-06-01T03:35:28;8.60;;;2.60;;
77018;SDS011;66044;53.142;17.962;2023-06-01T03:37:54;7.30;;;2.30;;
77018;SDS011;66044;53.142;17.962;2023-06-01T03:40:21;8.40;;;2.80;;
77018;SDS011;66044;53.142;17.962;2023-06-01T03:42:47;8.30;;;2.40;;
77018;SDS011;66044;53.142;17.962;2023-06-01T03:45:15;13.80;;;3.50;;
77018;SDS011;66044;53.142;17.962;2023-06-01T03:47:42;8.30;;;2.60;;
77018;SDS011;66044;53.142;17.962;2023-06-01T03:50:09;6.30;;;2.10;;
77018;SDS011;66044;53.142;17.962;2023-06-01T03:52:36;8.90;;;2.80;;
77018;SDS011;66044;53.142;17.962;2023-06-01T03:55:05;8.10;;;2.80;;
77018;SDS011;66044;53.142;17.962;2023-06-01T03:57:34;9.20;;;2.40;;
77018;SDS011;66044;53.142;17.962;2023-06-01T04:00:06;8.40;;;2.90;;
77018;SDS011;66044;53.142;17.962;2023-06-01T04:02:52;8.90;;;2.90;;
77018;SDS011;66044;53.142;17.962;2023-06-01T04:05:21;10.20;;;3.30;;
77018;SDS011;66044;53.142;17.962;2023-06-01T04:07:48;9.00;;;3.00;;
77018;SDS011;66044;53.142;17.962;2023-06-01T04:10:16;8.30;;;2.80;;
77018;SDS011;66044;53.142;17.962;2023-06-01T04:12:43;6.80;;;2.40;;
77018;SDS011;66044;53.142;17.962;2023-06-01T04:15:11;10.90;;;2.60;;
77018;SDS011;66044;53.142;17.962;2023-06-01T04:17:39;8.30;;;2.80;;
77018;SDS011;66044;53.142;17.962;2023-06-01T04:20:08;10.00;;;3.00;;
77018;SDS011;66044;53.142;17.962;2023-06-01T04:22:37;7.00;;;2.60;;
77018;SDS011;66044;53.142;17.962;2023-06-01T04:25:05;10.00;;;3.40;;
77018;SDS011;66044;53.142;17.962;2023-06-01T04:27:34;12.30;;;3.20;;
77018;SDS011;66044;53.142;17.962;2023-06-01T04:30:04;11.30;;;3.30;;
77018;SDS011;66044;53.142;17.962;2023-06-01T04:32:34;9.10;;;2.60;;
77018;SDS011;66044;53.142;17.962;2023-06-01T04:35:04;18.70;;;3.20;;
77018;SDS011;66044;53.142;17.962;2023-06-01T04:37:36;10.80;;;3.00;;
77018;SDS011;66044;53.142;17.962;2023-06-01T04:40:06;10.90;;;3.20;;
77018;SDS011;66044;53.142;17.962;2023-06-01T04:42:38;11.90;;;2.40;;
77018;SDS011;66044;53.142;17.962;2023-06-01T04:45:11;11.00;;;2.70;;
77018;SDS011;66044;53.142;17.962;2023-06-01T04:47:39;9.90;;;2.30;;
77018;SDS011;66044;53.142;17.962;2023-06-01T04:50:06;14.30;;;2.70;;
77018;SDS011;66044;53.142;17.962;2023-06-01T04:52:36;7.90;;;2.40;;
77018;SDS011;66044;53.142;17.962;2023-06-01T04:55:07;9.10;;;2.50;;
77018;SDS011;66044;53.142;17.962;2023-06-01T04:57:35;8.60;;;2.20;;
77018;SDS011;66044;53.142;17.962;2023-06-01T05:00:03;8.00;;;2.10;;
77018;SDS011;66044;53.142;17.962;2023-06-01T05:02:37;7.00;;;2.10;;
77018;SDS011;66044;53.142;17.962;2023-06-01T05:05:05;8.20;;;2.10;;
77018;SDS011;66044;53.142;17.962;2023-06-01T05:07:33;12.20;;;2.50;;
77018;SDS011;66044;53.142;17.962;2023-06-01T05:09:59;7.70;;;1.80;;
77018;SDS011;66044;53.142;17.962;2023-06-01T05:12:31;6.20;;;1.70;;
77018;SDS011;66044;53.142;17.962;2023-06-01T05:14:58;7.50;;;1.90;;
77018;SDS011;66044;53.142;17.962;2023-06-01T05:17:26;7.00;;;1.80;;
77018;SDS011;66044;53.142;17.962;2023-06-01T05:19:52;7.40;;;2.00;;
77018;SDS011;66044;53.142;17.962;2023-06-01T05:22:19;6.40;;;2.00;;
77018;SDS011;66044;53.142;17.962;2023-06-01T05:24:45;6.00;;;1.70;;
77018;SDS011;66044;53.142;17.962;2023-06-01T05:27:12;7.20;;;2.10;;
77018;SDS011;66044;53.142;17.962;2023-06-01T05:29:38;7.60;;;3.10;;
77018;SDS011;66044;53.142;17.962;2023-06-01T05:32:05;8.20;;;2.00;;
77018;SDS011;66044;53.142;17.962;2023-06-01T05:34:33;6.60;;;2.10;;
77018;SDS011;66044;53.142;17.962;2023-06-01T05:37:00;7.70;;;2.00;;
77018;SDS011;66044;53.142;17.962;2023-06-01T05:39:27;7.10;;;1.80;;
77018;SDS011;66044;53.142;17.962;2023-06-01T05:41:54;9.30;;;1.80;;
77018;SDS011;66044;53.142;17.962;2023-06-01T05:44:21;8.00;;;1.70;;
77018;SDS011;66044;53.142;17.962;2023-06-01T05:46:48;6.90;;;1.80;;
77018;SDS011;66044;53.142;17.962;2023-06-01T05:49:15;6.70;;;1.90;;
77018;SDS011;66044;53.142;17.962;2023-06-01T05:51:42;7.40;;;2.10;;
77018;SDS011;66044;53.142;17.962;2023-06-01T05:54:09;7.10;;;2.20;;
77018;SDS011;66044;53.142;17.962;2023-06-01T05:56:36;6.00;;;1.70;;
77018;SDS011;66044;53.142;17.962;2023-06-01T05:59:03;9.90;;;2.20;;
77018;SDS011;66044;53.142;17.962;2023-06-01T06:01:30;12.40;;;2.20;;
77018;SDS011;66044;53.142;17.962;2023-06-01T06:03:56;7.80;;;1.70;;
77018;SDS011;66044;53.142;17.962;2023-06-01T06:06:23;7.60;;;1.60;;
77018;SDS011;66044;53.142;17.962;2023-06-01T06:08:50;5.90;;;2.10;;
77018;SDS011;66044;53.142;17.962;2023-06-01T06:11:16;11.80;;;2.10;;
77018;SDS011;66044;53.142;17.962;2023-06-01T06:13:43;9.80;;;2.10;;
77018;SDS011;66044;53.142;17.962;2023-06-01T06:16:09;14.10;;;2.50;;
77018;SDS011;66044;53.142;17.962;2023-06-01T06:18:36;7.10;;;2.20;;
77018;SDS011;66044;53.142;17.962;2023-06-01T06:21:02;8.60;;;1.80;;
77018;SDS011;66044;53.142;17.962;2023-06-01T06:23:29;9.20;;;2.00;;
77018;SDS011;66044;53.142;17.962;2023-06-01T06:25:56;7.30;;;1.90;;
77018;SDS011;66044;53.142;17.962;2023-06-01T06:28:23;8.30;;;2.20;;
77018;SDS011;66044;53.142;17.962;2023-06-01T06:30:49;9.00;;;2.60;;
77018;SDS011;66044;53.142;17.962;2023-06-01T06:33:16;9.50;;;2.60;;
77018;SDS011;66044;53.142;17.962;2023-06-01T06:35:42;8.60;;;2.10;;
77018;SDS011;66044;53.142;17.962;2023-06-01T06:38:11;8.20;;;2.00;;
77018;SDS011;66044;53.142;17.962;2023-06-01T06:40:38;9.00;;;1.80;;
77018;SDS011;66044;53.142;17.962;2023-06-01T06:43:04;7.40;;;2.10;;
77018;SDS011;66044;53.142;17.962;2023-06-01T06:45:31;8.00;;;1.90;;
77018;SDS011;66044;53.142;17.962;2023-06-01T06:47:57;7.40;;;2.10;;
77018;SDS011;66044;53.142;17.962;2023-06-01T06:50:24;8.50;;;2.20;;
77018;SDS011;66044;53.142;17.962;2023-06-01T06:52:50;8.80;;;2.30;;
77018;SDS011;66044;53.142;17.962;2023-06-01T06:55:17;7.80;;;2.40;;
77018;SDS011;66044;53.142;17.962;2023-06-01T06:57:43;8.70;;;2.30;;
77018;SDS011;66044;53.142;17.962;2023-06-01T07:00:10;6.60;;;2.30;;
77018;SDS011;66044;53.142;17.962;2023-06-01T07:02:40;7.70;;;2.30;;
77018;SDS011;66044;53.142;17.962;2023-06-01T07:05:11;7.20;;;2.30;;
77018;SDS011;66044;53.142;17.962;2023-06-01T07:07:38;7.10;;;2.20;;
77018;SDS011;66044;53.142;17.962;2023-06-01T07:10:06;6.70;;;2.50;;
77018;SDS011;66044;53.142;17.962;2023-06-01T07:12:33;6.50;;;2.30;;
77018;SDS011;66044;53.142;17.962;2023-06-01T07:15:00;7.80;;;3.00;;
77018;SDS011;66044;53.142;17.962;2023-06-01T07:17:27;6.40;;;2.50;;
77018;SDS011;66044;53.142;17.962;2023-06-01T07:19:54;8.80;;;2.70;;
77018;SDS011;66044;53.142;17.962;2023-06-01T07:22:20;7.20;;;2.70;;
77018;SDS011;66044;53.142;17.962;2023-06-01T07:24:47;7.90;;;2.20;;
77018;SDS011;66044;53.142;17.962;2023-06-01T07:27:13;8.70;;;2.10;;
77018;SDS011;66044;53.142;17.962;2023-06-01T07:29:40;9.10;;;2.60;;
77018;SDS011;66044;53.142;17.962;2023-06-01T07:32:08;10.20;;;2.60;;
77018;SDS011;66044;53.142;17.962;2023-06-01T07:34:34;7.00;;;1.90;;
77018;SDS011;66044;53.142;17.962;2023-06-01T07:37:01;6.60;;;1.90;;
77018;SDS011;66044;53.142;17.962;2023-06-01T07:39:29;9.10;;;2.00;;
77018;SDS011;66044;53.142;17.962;2023-06-01T07:41:56;7.20;;;1.60;;
77018;SDS011;66044;53.142;17.962;2023-06-01T07:44:23;10.30;;;1.50;;
77018;SDS011;66044;53.142;17.962;2023-06-01T07:46:49;9.30;;;1.60;;
77018;SDS011;66044;53.142;17.962;2023-06-01T07:49:16;8.80;;;1.70;;
77018;SDS011;66044;53.142;17.962;2023-06-01T07:51:42;7.90;;;1.50;;
77018;SDS011;66044;53.142;17.962;2023-06-01T07:54:09;8.70;;;1.60;;
77018;SDS011;66044;53.142;17.962;2023-06-01T07:56:36;7.90;;;1.50;;
77018;SDS011;66044;53.142;17.962;2023-06-01T07:59:03;7.20;;;1.50;;
77018;SDS011;66044;53.142;17.962;2023-06-01T08:01:29;11.30;;;1.60;;
77018;SDS011;66044;53.142;17.962;2023-06-01T08:03:56;7.60;;;1.70;;
77018;SDS011;66044;53.142;17.962;2023-06-01T08:06:22;9.00;;;1.80;;
77018;SDS011;66044;53.142;17.962;2023-06-01T08:08:49;7.50;;;1.30;;
77018;SDS011;66044;53.142;17.962;2023-06-01T08:11:17;8.80;;;1.70;;
77018;SDS011;66044;53.142;17.962;2023-06-01T08:13:44;8.80;;;1.60;;
77018;SDS011;66044;53.142;17.962;2023-06-01T08:16:12;7.70;;;1.60;;
77018;SDS011;66044;53.142;17.962;2023-06-01T08:18:42;7.50;;;1.40;;
77018;SDS011;66044;53.142;17.962;2023-06-01T08:21:09;8.70;;;2.00;;
77018;SDS011;66044;53.142;17.962;2023-06-01T08:23:35;8.90;;;1.30;;
77018;SDS011;66044;53.142;17.962;2023-06-01T08:26:02;7.50;;;1.70;;
77018;SDS011;66044;53.142;17.962;2023-06-01T08:28:28;7.40;;;1.50;;
77018;SDS011;66044;53.142;17.962;2023-06-01T08:30:55;8.80;;;1.70;;
77018;SDS011;66044;53.142;17.962;2023-06-01T08:33:22;6.90;;;1.90;;
77018;SDS011;66044;53.142;17.962;2023-06-01T08:35:49;8.70;;;1.60;;
77018;SDS011;66044;53.142;17.962;2023-06-01T08:38:17;13.50;;;2.30;;
77018;SDS011;66044;53.142;17.962;2023-06-01T08:40:44;8.80;;;2.10;;
77018;SDS011;66044;53.142;17.962;2023-06-01T08:45:47;10.30;;;2.10;;
77018;SDS011;66044;53.142;17.962;2023-06-01T08:48:17;8.50;;;1.50;;
77018;SDS011;66044;53.142;17.962;2023-06-01T08:50:47;8.20;;;2.10;;
77018;SDS011;66044;53.142;17.962;2023-06-01T08:53:19;7.30;;;1.90;;
77018;SDS011;66044;53.142;17.962;2023-06-01T08:55:51;7.50;;;2.00;;
77018;SDS011;66044;53.142;17.962;2023-06-01T08:58:18;11.50;;;1.90;;
77018;SDS011;66044;53.142;17.962;2023-06-01T09:00:48;10.70;;;2.00;;
77018;SDS011;66044;53.142;17.962;2023-06-01T09:03:19;8.20;;;1.90;;
77018;SDS011;66044;53.142;17.962;2023-06-01T09:05:46;8.70;;;2.10;;
77018;SDS011;66044;53.142;17.962;2023-06-01T09:08:12;8.20;;;1.60;;
77018;SDS011;66044;53.142;17.962;2023-06-01T09:10:41;9.20;;;2.20;;
77018;SDS011;66044;53.142;17.962;2023-06-01T09:13:07;9.80;;;2.00;;
77018;SDS011;66044;53.142;17.962;2023-06-01T09:15:34;10.30;;;1.90;;
77018;SDS011;66044;53.142;17.962;2023-06-01T09:18:04;7.30;;;1.60;;
77018;SDS011;66044;53.142;17.962;2023-06-01T09:20:32;10.20;;;2.00;;
77018;SDS011;66044;53.142;17.962;2023-06-01T09:22:59;7.40;;;1.80;;
77018;SDS011;66044;53.142;17.962;2023-06-01T09:25:27;8.50;;;1.80;;
77018;SDS011;66044;53.142;17.962;2023-06-01T09:27:55;7.30;;;1.80;;
77018;SDS011;66044;53.142;17.962;2023-06-01T09:30:23;8.30;;;2.50;;
77018;SDS011;66044;53.142;17.962;2023-06-01T09:33:13;9.40;;;2.00;;
77018;SDS011;66044;53.142;17.962;2023-06-01T09:38:10;6.60;;;1.90;;
77018;SDS011;66044;53.142;17.962;2023-06-01T09:40:38;6.80;;;1.80;;
77018;SDS011;66044;53.142;17.962;2023-06-01T09:43:18;10.20;;;2.50;;
77018;SDS011;66044;53.142;17.962;2023-06-01T09:46:02;10.90;;;2.80;;
77018;SDS011;66044;53.142;17.962;2023-06-01T09:48:29;7.90;;;2.00;;
77018;SDS011;66044;53.142;17.962;2023-06-01T09:50:55;6.50;;;1.80;;
77018;SDS011;66044;53.142;17.962;2023-06-01T09:53:22;9.20;;;2.00;;
77018;SDS011;66044;53.142;17.962;2023-06-01T09:55:58;5.80;;;1.80;;
77018;SDS011;66044;53.142;17.962;2023-06-01T09:58:25;6.30;;;1.60;;
77018;SDS011;66044;53.142;17.962;2023-06-01T10:00:52;8.20;;;1.90;;
77018;SDS011;66044;53.142;17.962;2023-06-01T10:03:20;10.20;;;2.00;;
77018;SDS011;66044;53.142;17.962;2023-06-01T10:05:48;7.90;;;1.70;;
77018;SDS011;66044;53.142;17.962;2023-06-01T10:08:16;11.00;;;2.30;;
77018;SDS011;66044;53.142;17.962;2023-06-01T10:10:44;5.70;;;1.70;;
77018;SDS011;66044;53.142;17.962;2023-06-01T10:13:13;6.50;;;1.70;;
77018;SDS011;66044;53.142;17.962;2023-06-01T10:15:40;9.60;;;2.40;;
77018;SDS011;66044;53.142;17.962;2023-06-01T10:18:07;8.70;;;2.00;;
77018;SDS011;66044;53.142;17.962;2023-06-01T10:20:35;6.10;;;1.80;;
77018;SDS011;66044;53.142;17.962;2023-06-01T10:23:03;5.90;;;1.90;;
77018;SDS011;66044;53.142;17.962;2023-06-01T10:25:35;8.50;;;1.70;;
77018;SDS011;66044;53.142;17.962;2023-06-01T10:28:06;6.60;;;1.70;;
77018;SDS011;66044;53.142;17.962;2023-06-01T10:30:36;5.60;;;1.60;;
77018;SDS011;66044;53.142;17.962;2023-06-01T10:33:02;6.40;;;2.00;;
77018;SDS011;66044;53.142;17.962;2023-06-01T10:40:44;7.10;;;2.00;;
77018;SDS011;66044;53.142;17.962;2023-06-01T10:49:03;6.50;;;1.70;;
77018;SDS011;66044;53.142;17.962;2023-06-01T10:51:31;7.70;;;1.80;;
77018;SDS011;66044;53.142;17.962;2023-06-01T10:54:23;7.80;;;1.90;;
77018;SDS011;66044;53.142;17.962;2023-06-01T11:00:38;8.10;;;1.90;;
77018;SDS011;66044;53.142;17.962;2023-06-01T11:02:42;10.10;;;1.90;;
77018;SDS011;66044;53.142;17.962;2023-06-01T11:08:05;8.10;;;1.90;;
77018;SDS011;66044;53.142;17.962;2023-06-01T11:23:58;7.50;;;1.90;;
77018;SDS011;66044;53.142;17.962;2023-06-01T11:26:30;5.90;;;1.50;;
77018;SDS011;66044;53.142;17.962;2023-06-01T11:31:42;8.00;;;1.40;;
77018;SDS011;66044;53.142;17.962;2023-06-01T11:34:14;9.00;;;1.80;;
77018;SDS011;66044;53.142;17.962;2023-06-01T11:36:45;7.40;;;1.70;;
77018;SDS011;66044;53.142;17.962;2023-06-01T11:39:22;8.90;;;1.90;;
77018;SDS011;66044;53.142;17.962;2023-06-01T11:41:51;8.40;;;1.90;;
77018;SDS011;66044;53.142;17.962;2023-06-01T11:44:19;6.20;;;1.70;;
77018;SDS011;66044;53.142;17.962;2023-06-01T11:46:49;6.30;;;1.40;;
77018;SDS011;66044;53.142;17.962;2023-06-01T11:49:17;10.20;;;2.30;;
77018;SDS011;66044;53.142;17.962;2023-06-01T11:51:44;7.40;;;1.80;;
77018;SDS011;66044;53.142;17.962;2023-06-01T11:54:11;8.90;;;1.90;;
77018;SDS011;66044;53.142;17.962;2023-06-01T11:56:38;7.50;;;1.80;;
77018;SDS011;66044;53.142;17.962;2023-06-01T11:59:06;8.10;;;1.60;;
77018;SDS011;66044;53.142;17.962;2023-06-01T12:01:36;7.40;;;1.70;;
77018;SDS011;66044;53.142;17.962;2023-06-01T12:04:18;7.20;;;1.50;;
77018;SDS011;66044;53.142;17.962;2023-06-01T12:06:49;8.50;;;1.80;;
77018;SDS011;66044;53.142;17.962;2023-06-01T12:09:15;8.40;;;1.80;;
77018;SDS011;66044;53.142;17.962;2023-06-01T12:11:43;9.50;;;1.80;;
77018;SDS011;66044;53.142;17.962;2023-06-01T12:14:11;7.20;;;1.60;;
77018;SDS011;66044;53.142;17.962;2023-06-01T12:16:51;6.70;;;1.70;;
77018;SDS011;66044;53.142;17.962;2023-06-01T12:19:19;6.70;;;1.40;;
77018;SDS011;66044;53.142;17.962;2023-06-01T12:21:46;8.70;;;1.90;;
77018;SDS011;66044;53.142;17.962;2023-06-01T12:24:26;6.80;;;1.40;;
77018;SDS011;66044;53.142;17.962;2023-06-01T12:26:59;4.90;;;1.20;;
77018;SDS011;66044;53.142;17.962;2023-06-01T12:29:35;7.20;;;1.40;;
77018;SDS011;66044;53.142;17.962;2023-06-01T12:32:04;8.70;;;1.70;;
77018;SDS011;66044;53.142;17.962;2023-06-01T12:34:31;8.30;;;1.60;;
77018;SDS011;66044;53.142;17.962;2023-06-01T12:36:58;6.60;;;1.40;;
77018;SDS011;66044;53.142;17.962;2023-06-01T12:39:33;7.50;;;1.60;;
77018;SDS011;66044;53.142;17.962;2023-06-01T12:42:04;7.50;;;2.10;;
77018;SDS011;66044;53.142;17.962;2023-06-01T12:44:31;7.90;;;2.00;;
77018;SDS011;66044;53.142;17.962;2023-06-01T12:47:03;8.10;;;1.50;;
77018;SDS011;66044;53.142;17.962;2023-06-01T12:49:30;6.70;;;1.70;;
77018;SDS011;66044;53.142;17.962;2023-06-01T12:51:56;8.70;;;1.90;;
77018;SDS011;66044;53.142;17.962;2023-06-01T12:54:23;6.50;;;1.50;;
77018;SDS011;66044;53.142;17.962;2023-06-01T12:56:50;7.10;;;1.70;;
77018;SDS011;66044;53.142;17.962;2023-06-01T12:59:17;6.50;;;1.60;;
77018;SDS011;66044;53.142;17.962;2023-06-01T13:01:43;5.20;;;1.50;;
77018;SDS011;66044;53.142;17.962;2023-06-01T13:04:10;6.70;;;1.40;;
77018;SDS011;66044;53.142;17.962;2023-06-01T13:06:36;7.20;;;1.70;;
77018;SDS011;66044;53.142;17.962;2023-06-01T13:09:04;8.80;;;2.40;;
77018;SDS011;66044;53.142;17.962;2023-06-01T13:11:30;6.20;;;1.50;;
77018;SDS011;66044;53.142;17.962;2023-06-01T13:13:57;8.10;;;1.50;;
77018;SDS011;66044;53.142;17.962;2023-06-01T13:16:23;6.40;;;1.50;;
77018;SDS011;66044;53.142;17.962;2023-06-01T13:18:50;7.90;;;1.80;;
77018;SDS011;66044;53.142;17.962;2023-06-01T13:21:17;6.60;;;2.10;;
77018;SDS011;66044;53.142;17.962;2023-06-01T13:23:44;8.90;;;1.50;;
77018;SDS011;66044;53.142;17.962;2023-06-01T13:26:12;9.10;;;1.70;;
77018;SDS011;66044;53.142;17.962;2023-06-01T13:28:40;6.70;;;1.90;;
77018;SDS011;66044;53.142;17.962;2023-06-01T13:31:07;5.80;;;1.50;;
77018;SDS011;66044;53.142;17.962;2023-06-01T13:33:33;8.20;;;1.90;;
77018;SDS011;66044;53.142;17.962;2023-06-01T13:36:00;7.10;;;2.00;;
77018;SDS011;66044;53.142;17.962;2023-06-01T13:38:26;9.20;;;1.70;;
77018;SDS011;66044;53.142;17.962;2023-06-01T13:40:53;8.40;;;1.90;;
77018;SDS011;66044;53.142;17.962;2023-06-01T13:43:19;7.20;;;1.80;;
77018;SDS011;66044;53.142;17.962;2023-06-01T13:45:46;5.40;;;1.30;;
77018;SDS011;66044;53.142;17.962;2023-06-01T13:48:12;6.50;;;1.90;;
77018;SDS011;66044;53.142;17.962;2023-06-01T13:50:39;5.40;;;1.40;;
77018;SDS011;66044;53.142;17.962;2023-06-01T13:53:06;7.30;;;2.00;;
77018;SDS011;66044;53.142;17.962;2023-06-01T13:55:32;6.60;;;1.70;;
77018;SDS011;66044;53.142;17.962;2023-06-01T13:57:59;6.90;;;1.70;;
77018;SDS011;66044;53.142;17.962;2023-06-01T14:00:25;5.50;;;1.30;;
77018;SDS011;66044;53.142;17.962;2023-06-01T14:02:54;5.10;;;1.50;;
77018;SDS011;66044;53.142;17.962;2023-06-01T14:05:20;8.20;;;1.50;;
77018;SDS011;66044;53.142;17.962;2023-06-01T14:07:47;5.90;;;1.60;;
77018;SDS011;66044;53.142;17.962;2023-06-01T14:10:13;9.20;;;1.80;;
77018;SDS011;66044;53.142;17.962;2023-06-01T14:12:40;6.30;;;1.90;;
77018;SDS011;66044;53.142;17.962;2023-06-01T14:15:08;8.60;;;2.00;;
77018;SDS011;66044;53.142;17.962;2023-06-01T14:17:34;7.80;;;1.80;;
77018;SDS011;66044;53.142;17.962;2023-06-01T14:20:01;6.50;;;1.70;;
77018;SDS011;66044;53.142;17.962;2023-06-01T14:22:27;9.20;;;2.10;;
77018;SDS011;66044;53.142;17.962;2023-06-01T14:24:54;6.10;;;1.70;;
77018;SDS011;66044;53.142;17.962;2023-06-01T14:27:20;7.60;;;3.90;;
77018;SDS011;66044;53.142;17.962;2023-06-01T14:29:47;6.90;;;1.60;;
77018;SDS011;66044;53.142;17.962;2023-06-01T14:32:13;6.30;;;1.80;;
77018;SDS011;66044;53.142;17.962;2023-06-01T14:34:40;5.60;;;1.60;;
77018;SDS011;66044;53.142;17.962;2023-06-01T14:37:06;7.00;;;1.80;;
77018;SDS011;66044;53.142;17.962;2023-06-01T14:39:36;7.50;;;1.70;;
77018;SDS011;66044;53.142;17.962;2023-06-01T14:42:04;8.00;;;1.90;;
77018;SDS011;66044;53.142;17.962;2023-06-01T14:44:31;7.10;;;1.70;;
77018;SDS011;66044;53.142;17.962;2023-06-01T14:46:57;7.80;;;1.70;;
77018;SDS011;66044;53.142;17.962;2023-06-01T14:49:24;6.80;;;1.80;;
77018;SDS011;66044;53.142;17.962;2023-06-01T14:51:50;7.70;;;1.70;;
77018;SDS011;66044;53.142;17.962;2023-06-01T14:54:17;7.90;;;1.80;;
77018;SDS011;66044;53.142;17.962;2023-06-01T14:56:43;6.00;;;1.60;;
77018;SDS011;66044;53.142;17.962;2023-06-01T14:59:10;10.00;;;1.80;;
77018;SDS011;66044;53.142;17.962;2023-06-01T15:01:36;8.50;;;1.70;;
77018;SDS011;66044;53.142;17.962;2023-06-01T15:04:03;6.70;;;1.60;;
77018;SDS011;66044;53.142;17.962;2023-06-01T15:06:29;6.70;;;1.70;;
77018;SDS011;66044;53.142;17.962;2023-06-01T15:08:56;6.90;;;1.70;;
77018;SDS011;66044;53.142;17.962;2023-06-01T15:11:22;7.00;;;1.90;;
77018;SDS011;66044;53.142;17.962;2023-06-01T15:13:49;8.40;;;1.60;;
77018;SDS011;66044;53.142;17.962;2023-06-01T15:16:15;6.00;;;1.50;;
77018;SDS011;66044;53.142;17.962;2023-06-01T15:18:42;9.60;;;2.60;;
77018;SDS011;66044;53.142;17.962;2023-06-01T15:21:08;10.60;;;2.00;;
77018;SDS011;66044;53.142;17.962;2023-06-01T15:23:35;9.20;;;2.00;;
77018;SDS011;66044;53.142;17.962;2023-06-01T15:26:01;7.00;;;1.80;;
77018;SDS011;66044;53.142;17.962;2023-06-01T15:28:29;7.00;;;1.60;;